Time;durP1;ratioP1;P1;durP2;ratioP2;P2;SDS_P1;SDS_P2;PMS_P1;PMS_P2;Temp;Humidity;BMP_temperature;BMP_pressure;BME280_temperature;BME280_humidity;BME280_pressure;Samples;Min_cycle;Max_cycle;Signal;HPM_P1;HPM_P2
2023/11/13 00:00:38;;;;;;;;;;;;;;;;;;5033713;28;20592;-45
2023/11/13 00:03:04;;;;;;;;;;;;;;;;;;5017398;28;19916;-47
2023/11/13 00:05:31;;;;;;;;;;;;;;;;;;5035183;28;19978;-47
2023/11/13 00:07:57;;;;;;;;;;;;;;;;;;5035002;28;19909;-47
2023/11/13 00:10:23;;;;;;;;;;;;;;;;;;5034809;28;19920;-47
2023/11/13 00:12:49;;;;;;;;;;;;;;;;;;5016954;28;19996;-47
2023/11/13 00:15:15;;;;;;;;;;;;;;;;;;5034651;28;19909;-46
2023/11/13 00:17:41;;;;;;;;;;;;;;;;;;5034704;28;19928;-47
2023/11/13 00:20:08;;;;;;;;;;;;;;;;;;5034830;28;20015;-45
2023/11/13 00:22:34;;;;;;;;;;;;;;;;;;5034536;28;19913;-46
2023/11/13 00:25:00;;;;;;;;;;;;;;;;;;5016972;28;20081;-46
2023/11/13 00:27:26;;;;;;;;;;;;;;;;;;5017107;28;19913;-47
2023/11/13 00:29:52;;;;;;;;;;;;;;;;;;5017075;28;19959;-48
2023/11/13 00:32:18;;;;;;;;;;;;;;;;;;5016401;28;19959;-46
2023/11/13 00:34:44;;;;;;;;;;;;;;;;;;5000244;28;19915;-46
2023/11/13 00:37:10;;;;;;;;;;;;;;;;;;5034864;28;19992;-50
2023/11/13 00:39:37;;;;;;;;;;;;;;;;;;5034510;28;19953;-47
2023/11/13 00:42:04;;;;;;;;;;;;;;;;;;5016487;28;19913;-46
2023/11/13 00:44:30;;;;;;;;;;;;;;;;;;5016790;28;20016;-47
2023/11/13 00:46:56;;;;;;;;;;;;;;;;;;5034398;28;20439;-47
2023/11/13 00:49:22;;;;;;;;;;;;;;;;;;5034262;28;19959;-46
2023/11/13 00:51:48;;;;;;;;;;;;;;;;;;4999977;28;19956;-46
2023/11/13 00:54:16;;;;;;;;;;;;;;;;;;5034213;28;20299;-47
2023/11/13 00:56:43;;;;;;;;;;;;;;;;;;5016437;28;20104;-48
2023/11/13 00:59:09;;;;;;;;;;;;;;;;;;5016319;28;19909;-46
2023/11/13 01:01:35;;;;;;;;;;;;;;;;;;5016155;28;19909;-46
2023/11/13 01:04:03;;;;;;;;;;;;;;;;;;5016283;28;20062;-47
2023/11/13 01:06:29;;;;;;;;;;;;;;;;;;5016435;28;19920;-46
2023/11/13 01:08:55;;;;;;;;;;;;;;;;;;5014899;28;19909;-46
2023/11/13 01:11:21;;;;;;;;;;;;;;;;;;5033504;28;19995;-45
2023/11/13 01:13:47;;;;;;;;;;;;;;;;;;5015946;28;19920;-46
2023/11/13 01:16:13;;;;;;;;;;;;;;;;;;5033742;28;19917;-46
2023/11/13 01:18:39;;;;;;;;;;;;;;;;;;5033760;28;19913;-45
2023/11/13 01:21:05;;;;;;;;;;;;;;;;;;5033780;28;19963;-47
2023/11/13 01:23:31;;;;;;;;;;;;;;;;;;5029165;28;19917;-47
2023/11/13 01:25:57;;;;;;;;;;;;;;;;;;5032527;28;19920;-47
2023/11/13 01:28:23;;;;;;;;;;;;;;;;;;5033476;28;19909;-46
2023/11/13 01:30:49;;;;;;;;;;;;;;;;;;5033405;28;19924;-46
2023/11/13 01:33:15;;;;;;;;;;;;;;;;;;5033653;28;19909;-45
2023/11/13 01:35:41;;;;;;;;;;;;;;;;;;5032404;28;20395;-46
2023/11/13 01:38:07;;;;;;;;;;;;;;;;;;5032271;28;20180;-46
2023/11/13 01:40:33;;;;;;;;;;;;;;;;;;5027906;28;19909;-47
2023/11/13 01:42:59;;;;;;;;;;;;;;;;;;5044125;28;19939;-47
2023/11/13 01:45:25;;;;;;;;;;;;;;;;;;5020131;28;20003;-46
2023/11/13 01:47:51;;;;;;;;;;;;;;;;;;5050858;28;19909;-47
2023/11/13 01:50:17;;;;;;;;;;;;;;;;;;5035465;28;19917;-46
2023/11/13 01:52:43;;;;;;;;;;;;;;;;;;5053214;28;19904;-46
2023/11/13 01:55:10;;;;;;;;;;;;;;;;;;5052071;28;20298;-48
2023/11/13 01:57:36;;;;;;;;;;;;;;;;;;5051948;28;19915;-47
2023/11/13 02:00:03;;;;;;;;;;;;;;;;;;5051973;28;20333;-46
2023/11/13 02:02:39;;;;;;;;;;;;;;;;;;5052873;28;19904;-47
2023/11/13 02:05:06;;;;;;;;;;;;;;;;;;5053167;28;20375;-46
2023/11/13 02:07:32;;;;;;;;;;;;;;;;;;5035220;28;19962;-47
2023/11/13 02:09:58;;;;;;;;;;;;;;;;;;5051823;28;19913;-46
2023/11/13 02:12:26;;;;;;;;;;;;;;;;;;5051364;28;19908;-49
2023/11/13 02:14:52;;;;;;;;;;;;;;;;;;5033782;28;19955;-46
2023/11/13 02:17:18;;;;;;;;;;;;;;;;;;5032775;28;20187;-46
2023/11/13 02:19:45;;;;;;;;;;;;;;;;;;5032654;28;20440;-46
2023/11/13 02:22:11;;;;;;;;;;;;;;;;;;5011612;28;20272;-47
2023/11/13 02:24:37;;;;;;;;;;;;;;;;;;5012030;28;20383;-46
2023/11/13 02:27:03;;;;;;;;;;;;;;;;;;5024098;28;19913;-46
2023/11/13 02:29:29;;;;;;;;;;;;;;;;;;4995516;28;20268;-46
2023/11/13 02:31:55;;;;;;;;;;;;;;;;;;5011673;28;19957;-46
2023/11/13 02:34:22;;;;;;;;;;;;;;;;;;5019829;28;20006;-46
2023/11/13 02:36:48;;;;;;;;;;;;;;;;;;5045241;28;19913;-46
2023/11/13 02:39:16;;;;;;;;;;;;;;;;;;5041414;28;19955;-47
2023/11/13 02:41:42;;;;;;;;;;;;;;;;;;5029576;28;19944;-48
2023/11/13 02:44:09;;;;;;;;;;;;;;;;;;5013199;28;20283;-47
2023/11/13 02:46:35;;;;;;;;;;;;;;;;;;5031455;28;20389;-47
2023/11/13 02:49:01;;;;;;;;;;;;;;;;;;5031403;28;19947;-47
2023/11/13 02:51:28;;;;;;;;;;;;;;;;;;5029515;28;20358;-47
2023/11/13 02:53:54;;;;;;;;;;;;;;;;;;5030396;28;19905;-49
2023/11/13 02:56:20;;;;;;;;;;;;;;;;;;5031338;28;19916;-46
2023/11/13 02:58:47;;;;;;;;;;;;;;;;;;5030334;28;19909;-48
2023/11/13 03:01:13;;;;;;;;;;;;;;;;;;5029802;28;19917;-46
2023/11/13 03:03:39;;;;;;;;;;;;;;;;;;5031136;28;19919;-49
2023/11/13 03:06:05;;;;;;;;;;;;;;;;;;5030051;28;20275;-50
2023/11/13 03:08:31;;;;;;;;;;;;;;;;;;5029955;28;19912;-49
2023/11/13 03:10:57;;;;;;;;;;;;;;;;;;5029319;28;19924;-47
2023/11/13 03:13:23;;;;;;;;;;;;;;;;;;5013330;28;19909;-49
2023/11/13 03:15:49;;;;;;;;;;;;;;;;;;5029427;28;19956;-47
2023/11/13 03:18:16;;;;;;;;;;;;;;;;;;5031033;28;20401;-47
2023/11/13 03:20:44;;;;;;;;;;;;;;;;;;5030539;28;19909;-48
2023/11/13 03:23:10;;;;;;;;;;;;;;;;;;4983653;28;1337806;-47
2023/11/13 03:25:36;;;;;;;;;;;;;;;;;;5031694;28;19909;-49
2023/11/13 03:28:02;;;;;;;;;;;;;;;;;;5030285;28;19931;-50
2023/11/13 03:30:28;;;;;;;;;;;;;;;;;;5049100;28;19923;-48
2023/11/13 03:32:54;;;;;;;;;;;;;;;;;;5053937;28;19909;-46
2023/11/13 03:35:20;;;;;;;;;;;;;;;;;;5054532;28;20287;-49
2023/11/13 03:37:46;;;;;;;;;;;;;;;;;;5054443;28;20379;-49
2023/11/13 03:40:12;;;;;;;;;;;;;;;;;;5054653;28;19913;-47
2023/11/13 03:42:38;;;;;;;;;;;;;;;;;;5055799;28;19904;-48
2023/11/13 03:45:04;;;;;;;;;;;;;;;;;;5054499;28;19908;-47
2023/11/13 03:47:30;;;;;;;;;;;;;;;;;;5055767;28;20379;-46
2023/11/13 03:49:56;;;;;;;;;;;;;;;;;;5055694;28;19920;-47
2023/11/13 03:52:24;;;;;;;;;;;;;;;;;;5035772;28;19912;-47
2023/11/13 03:54:50;;;;;;;;;;;;;;;;;;5035187;28;19932;-48
2023/11/13 03:57:16;;;;;;;;;;;;;;;;;;5035452;28;20333;-46
2023/11/13 03:59:42;;;;;;;;;;;;;;;;;;5034177;28;19909;-46
2023/11/13 04:02:08;;;;;;;;;;;;;;;;;;5034745;28;19909;-47
2023/11/13 04:04:34;;;;;;;;;;;;;;;;;;5035257;28;19909;-48
2023/11/13 04:07:00;;;;;;;;;;;;;;;;;;5034176;28;20003;-47
2023/11/13 04:09:28;;;;;;;;;;;;;;;;;;5033796;28;19924;-46
2023/11/13 04:11:55;;;;;;;;;;;;;;;;;;5032922;28;20223;-49
2023/11/13 04:14:23;;;;;;;;;;;;;;;;;;5033913;28;19996;-46
2023/11/13 04:16:49;;;;;;;;;;;;;;;;;;5033398;28;19909;-46
2023/11/13 04:19:15;;;;;;;;;;;;;;;;;;5033536;28;20668;-49
2023/11/13 04:21:47;;;;;;;;;;;;;;;;;;5033652;28;20423;-47
2023/11/13 04:24:13;;;;;;;;;;;;;;;;;;5035116;28;20292;-46
2023/11/13 04:26:39;;;;;;;;;;;;;;;;;;5034679;28;20409;-48
2023/11/13 04:29:05;;;;;;;;;;;;;;;;;;5035060;28;20405;-47
2023/11/13 04:31:32;;;;;;;;;;;;;;;;;;5034262;28;19920;-46
2023/11/13 04:33:58;;;;;;;;;;;;;;;;;;5016914;28;19916;-46
2023/11/13 04:36:25;;;;;;;;;;;;;;;;;;5034539;28;20020;-47
2023/11/13 04:38:51;;;;;;;;;;;;;;;;;;5016851;28;19909;-46
2023/11/13 04:41:17;;;;;;;;;;;;;;;;;;5033951;28;20000;-46
2023/11/13 04:43:43;;;;;;;;;;;;;;;;;;5025582;28;19910;-46
2023/11/13 04:46:09;;;;;;;;;;;;;;;;;;5024522;28;20307;-45
2023/11/13 04:48:35;;;;;;;;;;;;;;;;;;5014839;28;19995;-45
2023/11/13 04:51:01;;;;;;;;;;;;;;;;;;5020834;28;20412;-46
2023/11/13 04:53:27;;;;;;;;;;;;;;;;;;5033471;28;19967;-46
2023/11/13 04:55:53;;;;;;;;;;;;;;;;;;5033931;28;20371;-46
2023/11/13 04:58:20;;;;;;;;;;;;;;;;;;5031655;28;19963;-47
2023/11/13 05:00:46;;;;;;;;;;;;;;;;;;5032610;28;19909;-47
2023/11/13 05:03:12;;;;;;;;;;;;;;;;;;5034284;28;20390;-47
2023/11/13 05:05:38;;;;;;;;;;;;;;;;;;5034301;28;19909;-46
2023/11/13 05:08:05;;;;;;;;;;;;;;;;;;5034533;28;19909;-47
2023/11/13 05:10:32;;;;;;;;;;;;;;;;;;5034231;28;20000;-45
2023/11/13 05:12:58;;;;;;;;;;;;;;;;;;5034257;28;19920;-46
2023/11/13 05:15:24;;;;;;;;;;;;;;;;;;5016680;28;20059;-46
2023/11/13 05:17:50;;;;;;;;;;;;;;;;;;5034085;28;19909;-46
2023/11/13 05:20:17;;;;;;;;;;;;;;;;;;5016236;28;19916;-45
2023/11/13 05:22:43;;;;;;;;;;;;;;;;;;5033752;28;19920;-45
2023/11/13 05:25:09;;;;;;;;;;;;;;;;;;5034178;28;20007;-46
2023/11/13 05:27:35;;;;;;;;;;;;;;;;;;5034042;28;19916;-45
2023/11/13 05:30:01;;;;;;;;;;;;;;;;;;5033915;28;19912;-46
2023/11/13 05:32:27;;;;;;;;;;;;;;;;;;5033534;28;19913;-45
2023/11/13 05:34:55;;;;;;;;;;;;;;;;;;5033776;28;20405;-46
2023/11/13 05:37:21;;;;;;;;;;;;;;;;;;5016092;28;20004;-46
2023/11/13 05:39:47;;;;;;;;;;;;;;;;;;5016032;28;20000;-47
2023/11/13 05:42:13;;;;;;;;;;;;;;;;;;5033531;28;19905;-47
2023/11/13 05:44:39;;;;;;;;;;;;;;;;;;5033595;28;19909;-45
2023/11/13 05:47:05;;;;;;;;;;;;;;;;;;5033571;28;19991;-46
2023/11/13 05:49:31;;;;;;;;;;;;;;;;;;5033521;28;20028;-46
2023/11/13 05:51:57;;;;;;;;;;;;;;;;;;5033466;28;19936;-46
2023/11/13 05:54:24;;;;;;;;;;;;;;;;;;5015120;28;20295;-46
2023/11/13 05:56:50;;;;;;;;;;;;;;;;;;5033441;28;19905;-45
2023/11/13 05:59:16;;;;;;;;;;;;;;;;;;5015705;28;19909;-44
2023/11/13 06:01:42;;;;;;;;;;;;;;;;;;5031768;28;20371;-46
2023/11/13 06:04:08;;;;;;;;;;;;;;;;;;5032109;28;19909;-45
2023/11/13 06:06:34;;;;;;;;;;;;;;;;;;5033165;28;19909;-45
2023/11/13 06:09:00;;;;;;;;;;;;;;;;;;5033228;28;19912;-45
2023/11/13 06:11:26;;;;;;;;;;;;;;;;;;5032866;28;19920;-45
2023/11/13 06:13:52;;;;;;;;;;;;;;;;;;5015381;28;20000;-45
2023/11/13 06:16:20;;;;;;;;;;;;;;;;;;5033008;28;20381;-45
2023/11/13 06:18:46;;;;;;;;;;;;;;;;;;5033047;28;19909;-47
2023/11/13 06:21:12;;;;;;;;;;;;;;;;;;5015146;28;19916;-46
2023/11/13 06:23:38;;;;;;;;;;;;;;;;;;5032786;28;19921;-46
2023/11/13 06:26:05;;;;;;;;;;;;;;;;;;5015325;28;20195;-48
2023/11/13 06:28:31;;;;;;;;;;;;;;;;;;5033207;28;20378;-45
2023/11/13 06:30:57;;;;;;;;;;;;;;;;;;5031273;28;19935;-45
2023/11/13 06:33:23;;;;;;;;;;;;;;;;;;5031421;28;20371;-46
2023/11/13 06:35:49;;;;;;;;;;;;;;;;;;5032929;28;19912;-45
2023/11/13 06:38:15;;;;;;;;;;;;;;;;;;5031531;28;19909;-46
2023/11/13 06:40:41;;;;;;;;;;;;;;;;;;5014730;28;19916;-45
2023/11/13 06:43:07;;;;;;;;;;;;;;;;;;5032485;28;19999;-44
2023/11/13 06:45:33;;;;;;;;;;;;;;;;;;5031196;28;20468;-45
2023/11/13 06:47:59;;;;;;;;;;;;;;;;;;5032483;28;20058;-45
2023/11/13 06:50:26;;;;;;;;;;;;;;;;;;5032419;28;20406;-46
2023/11/13 06:52:53;;;;;;;;;;;;;;;;;;5031025;28;19909;-46
2023/11/13 06:55:19;;;;;;;;;;;;;;;;;;5031306;28;19919;-48
2023/11/13 06:57:45;;;;;;;;;;;;;;;;;;5032307;28;19912;-46
2023/11/13 07:00:11;;;;;;;;;;;;;;;;;;5031086;28;20374;-45
2023/11/13 07:02:39;;;;;;;;;;;;;;;;;;5030838;28;20379;-45
2023/11/13 07:05:07;;;;;;;;;;;;;;;;;;5014537;28;19915;-45
2023/11/13 07:07:33;;;;;;;;;;;;;;;;;;5032230;28;20359;-46
2023/11/13 07:10:01;;;;;;;;;;;;;;;;;;5032113;28;19913;-46
2023/11/13 07:12:29;;;;;;;;;;;;;;;;;;5031872;28;19909;-47
2023/11/13 07:14:57;;;;;;;;;;;;;;;;;;5032613;28;19909;-46
2023/11/13 07:17:23;;;;;;;;;;;;;;;;;;5031938;28;20283;-45
2023/11/13 07:19:50;;;;;;;;;;;;;;;;;;5031948;28;19913;-45
2023/11/13 07:22:17;;;;;;;;;;;;;;;;;;5031721;28;19913;-46
2023/11/13 07:24:43;;;;;;;;;;;;;;;;;;5032035;28;20368;-44
2023/11/13 07:27:12;;;;;;;;;;;;;;;;;;5030379;28;19971;-46
2023/11/13 07:29:38;;;;;;;;;;;;;;;;;;5013629;28;20381;-45
2023/11/13 07:32:04;;;;;;;;;;;;;;;;;;5030374;28;19909;-46
2023/11/13 07:34:32;;;;;;;;;;;;;;;;;;5031658;28;19996;-45
2023/11/13 07:36:58;;;;;;;;;;;;;;;;;;5032275;28;19913;-45
2023/11/13 07:39:27;;;;;;;;;;;;;;;;;;5031914;28;19951;-46
2023/11/13 07:41:55;;;;;;;;;;;;;;;;;;5031574;28;19913;-46
2023/11/13 07:44:21;;;;;;;;;;;;;;;;;;4997739;28;19916;-46
2023/11/13 07:46:47;;;;;;;;;;;;;;;;;;5013863;28;19913;-46
2023/11/13 07:49:14;;;;;;;;;;;;;;;;;;5031343;28;19909;-46
2023/11/13 07:51:43;;;;;;;;;;;;;;;;;;5013617;28;19913;-45
2023/11/13 07:54:09;;;;;;;;;;;;;;;;;;5031608;28;19917;-45
2023/11/13 07:56:38;;;;;;;;;;;;;;;;;;5031614;28;20290;-46
2023/11/13 07:59:11;;;;;;;;;;;;;;;;;;5031712;28;20364;-45
2023/11/13 08:01:37;;;;;;;;;;;;;;;;;;5031492;28;19962;-44
2023/11/13 08:04:04;;;;;;;;;;;;;;;;;;5031696;28;20364;-44
2023/11/13 08:06:30;;;;;;;;;;;;;;;;;;5031688;28;19909;-45
2023/11/13 08:08:56;;;;;;;;;;;;;;;;;;5014197;28;20299;-45
2023/11/13 08:11:23;;;;;;;;;;;;;;;;;;5013732;28;19917;-45
2023/11/13 08:13:49;;;;;;;;;;;;;;;;;;5014036;28;19916;-46
2023/11/13 08:16:15;;;;;;;;;;;;;;;;;;5031507;28;19916;-46
2023/11/13 08:18:41;;;;;;;;;;;;;;;;;;5034478;28;19909;-45
2023/11/13 08:21:10;;;;;;;;;;;;;;;;;;5017329;28;19970;-45
2023/11/13 08:23:36;;;;;;;;;;;;;;;;;;5035053;28;19917;-44
2023/11/13 08:26:03;;;;;;;;;;;;;;;;;;5017538;28;19924;-46
2023/11/13 08:28:31;;;;;;;;;;;;;;;;;;5035366;28;19915;-46
2023/11/13 08:30:57;;;;;;;;;;;;;;;;;;5017017;28;19917;-45
2023/11/13 08:33:23;;;;;;;;;;;;;;;;;;5034954;28;19999;-48
2023/11/13 08:35:49;;;;;;;;;;;;;;;;;;5034940;28;19948;-47
2023/11/13 08:38:16;;;;;;;;;;;;;;;;;;5017503;28;20379;-46
2023/11/13 08:40:42;;;;;;;;;;;;;;;;;;5016928;28;19916;-50
2023/11/13 08:43:10;;;;;;;;;;;;;;;;;;5017188;28;19913;-48
2023/11/13 08:45:37;;;;;;;;;;;;;;;;;;5034774;28;19910;-47
2023/11/13 08:48:03;;;;;;;;;;;;;;;;;;5034741;28;19909;-47
2023/11/13 08:50:30;;;;;;;;;;;;;;;;;;5034484;28;20008;-47
2023/11/13 08:52:57;;;;;;;;;;;;;;;;;;5017211;28;20349;-47
2023/11/13 08:55:24;;;;;;;;;;;;;;;;;;5034671;28;19909;-48
2023/11/13 08:57:51;;;;;;;;;;;;;;;;;;5034524;28;19909;-48
2023/11/13 09:00:24;;;;;;;;;;;;;;;;;;5034424;28;20410;-48
2023/11/13 09:02:50;;;;;;;;;;;;;;;;;;5034154;28;20445;-47
2023/11/13 09:05:19;;;;;;;;;;;;;;;;;;5034371;28;20268;-47
2023/11/13 09:07:45;;;;;;;;;;;;;;;;;;5034530;28;19916;-46
2023/11/13 09:10:11;;;;;;;;;;;;;;;;;;5034231;28;19919;-47
2023/11/13 09:12:37;;;;;;;;;;;;;;;;;;5034079;28;20004;-48
2023/11/13 09:15:03;;;;;;;;;;;;;;;;;;5034229;28;19909;-48
2023/11/13 09:17:30;;;;;;;;;;;;;;;;;;5034083;28;20031;-48
2023/11/13 09:19:56;;;;;;;;;;;;;;;;;;5034392;28;19912;-47
2023/11/13 09:22:23;;;;;;;;;;;;;;;;;;5020170;28;19920;-46
2023/11/13 09:24:51;;;;;;;;;;;;;;;;;;5034213;28;20178;-47
2023/11/13 09:27:18;;;;;;;;;;;;;;;;;;5034118;28;20406;-47
2023/11/13 09:29:44;;;;;;;;;;;;;;;;;;5048064;28;19913;-47
2023/11/13 09:32:10;;;;;;;;;;;;;;;;;;5016128;28;19990;-47
2023/11/13 09:34:36;;;;;;;;;;;;;;;;;;5032766;28;20095;-47
2023/11/13 09:37:05;;;;;;;;;;;;;;;;;;5032674;28;19955;-47
2023/11/13 09:39:32;;;;;;;;;;;;;;;;;;5032664;28;19916;-48
2023/11/13 09:41:58;;;;;;;;;;;;;;;;;;5032187;28;20474;-47
2023/11/13 09:44:25;;;;;;;;;;;;;;;;;;5033625;28;19963;-48
2023/11/13 09:46:51;;;;;;;;;;;;;;;;;;5033618;28;20298;-48
2023/11/13 09:49:17;;;;;;;;;;;;;;;;;;5032360;28;20331;-47
2023/11/13 09:51:43;;;;;;;;;;;;;;;;;;5033209;28;19948;-48
2023/11/13 09:54:10;;;;;;;;;;;;;;;;;;5032480;28;20003;-46
2023/11/13 09:56:38;;;;;;;;;;;;;;;;;;5032296;28;20367;-47
2023/11/13 09:59:05;;;;;;;;;;;;;;;;;;5015639;28;19909;-47
2023/11/13 10:01:31;;;;;;;;;;;;;;;;;;5033312;28;20322;-48
2023/11/13 10:03:58;;;;;;;;;;;;;;;;;;5032053;28;19909;-47
2023/11/13 10:06:24;;;;;;;;;;;;;;;;;;5032072;28;20379;-48
2023/11/13 10:08:53;;;;;;;;;;;;;;;;;;5033166;28;20337;-48
2023/11/13 10:11:20;;;;;;;;;;;;;;;;;;5032882;28;20379;-47
2023/11/13 10:13:47;;;;;;;;;;;;;;;;;;5031733;28;20268;-48
2023/11/13 10:16:13;;;;;;;;;;;;;;;;;;5031893;28;19928;-47
2023/11/13 10:18:39;;;;;;;;;;;;;;;;;;5031727;28;19916;-46
2023/11/13 10:21:05;;;;;;;;;;;;;;;;;;5031539;28;19905;-49
2023/11/13 10:23:31;;;;;;;;;;;;;;;;;;5074736;22;19960;-57
2023/11/13 10:25:58;;;;;;;;;;;;;;;;;;5032886;28;19916;-52
2023/11/13 10:28:25;;;;;;;;;;;;;;;;;;5032749;28;20290;-52
2023/11/13 10:30:51;;;;;;;;;;;;;;;;;;5014947;28;19924;-54
2023/11/13 10:33:17;;;;;;;;;;;;;;;;;;5015074;28;19909;-56
2023/11/13 10:35:45;;;;;;;;;;;;;;;;;;5031494;28;19917;-52
2023/11/13 10:38:14;;;;;;;;;;;;;;;;;;5006270;28;19909;-52
2023/11/13 10:40:44;;;;;;;;;;;;;;;;;;5032052;28;20243;-53
2023/11/13 10:43:10;;;;;;;;;;;;;;;;;;5020351;28;19914;-54
2023/11/13 10:45:36;;;;;;;;;;;;;;;;;;5052461;28;20310;-53
2023/11/13 10:48:02;;;;;;;;;;;;;;;;;;5033233;28;19916;-56
2023/11/13 10:50:28;;;;;;;;;;;;;;;;;;5026815;28;20332;-54
2023/11/13 10:52:54;;;;;;;;;;;;;;;;;;5031560;28;20034;-55
2023/11/13 10:55:22;;;;;;;;;;;;;;;;;;5052229;28;19908;-54
2023/11/13 10:57:48;;;;;;;;;;;;;;;;;;5036585;28;19905;-55
2023/11/13 11:00:14;;;;;;;;;;;;;;;;;;5032448;28;19909;-52
2023/11/13 11:02:43;;;;;;;;;;;;;;;;;;5032140;28;19993;-53
2023/11/13 11:05:13;;;;;;;;;;;;;;;;;;5032305;28;20294;-54
2023/11/13 11:07:39;;;;;;;;;;;;;;;;;;5014591;28;19920;-55
2023/11/13 11:10:05;;;;;;;;;;;;;;;;;;5031655;28;19908;-51
2023/11/13 11:12:32;;;;;;;;;;;;;;;;;;5051771;28;20152;-55
2023/11/13 11:14:58;;;;;;;;;;;;;;;;;;5052148;28;19909;-56
2023/11/13 11:17:25;;;;;;;;;;;;;;;;;;5041465;28;19916;-55
2023/11/13 11:19:51;;;;;;;;;;;;;;;;;;5031076;28;20367;-54
2023/11/13 11:22:17;;;;;;;;;;;;;;;;;;5038385;28;19908;-55
2023/11/13 11:24:44;;;;;;;;;;;;;;;;;;5054007;28;19915;-52
2023/11/13 11:27:10;;;;;;;;;;;;;;;;;;5050614;28;19996;-55
2023/11/13 11:29:36;;;;;;;;;;;;;;;;;;5046565;28;19962;-53
2023/11/13 11:32:04;;;;;;;;;;;;;;;;;;5068767;28;20398;-54
2023/11/13 11:34:31;;;;;;;;;;;;;;;;;;5034246;28;19912;-55
2023/11/13 11:36:57;;;;;;;;;;;;;;;;;;5051768;28;20020;-55
2023/11/13 11:39:23;;;;;;;;;;;;;;;;;;5033688;28;19944;-55
2023/11/13 11:41:51;;;;;;;;;;;;;;;;;;5030589;28;20054;-54
2023/11/13 11:44:18;;;;;;;;;;;;;;;;;;5028996;28;19916;-56
2023/11/13 11:46:44;;;;;;;;;;;;;;;;;;5045889;28;19908;-56
2023/11/13 11:49:10;;;;;;;;;;;;;;;;;;5038762;28;20095;-56
2023/11/13 11:51:37;;;;;;;;;;;;;;;;;;5049198;28;19965;-56
2023/11/13 11:54:04;;;;;;;;;;;;;;;;;;5035388;28;19909;-57
2023/11/13 11:56:30;;;;;;;;;;;;;;;;;;5051300;28;19932;-57
2023/11/13 11:58:57;;;;;;;;;;;;;;;;;;5053794;28;20264;-56
2023/11/13 12:01:26;;;;;;;;;;;;;;;;;;5035430;28;19908;-55
2023/11/13 12:03:53;;;;;;;;;;;;;;;;;;5043647;28;20359;-56
2023/11/13 12:06:20;;;;;;;;;;;;;;;;;;5044715;28;20005;-54
2023/11/13 12:08:47;;;;;;;;;;;;;;;;;;5023427;28;20352;-57
2023/11/13 12:11:16;;;;;;;;;;;;;;;;;;5017069;28;19912;-56
2023/11/13 12:13:43;;;;;;;;;;;;;;;;;;5033664;28;19999;-54
2023/11/13 12:16:10;;;;;;;;;;;;;;;;;;5042474;28;19916;-55
2023/11/13 12:18:39;;;;;;;;;;;;;;;;;;5034855;28;19909;-56
2023/11/13 12:21:06;;;;;;;;;;;;;;;;;;5033429;28;19940;-57
2023/11/13 12:23:33;;;;;;;;;;;;;;;;;;5032075;28;19929;-56
2023/11/13 12:25:59;;;;;;;;;;;;;;;;;;5006211;28;19920;-58
2023/11/13 12:28:25;;;;;;;;;;;;;;;;;;5002708;28;19913;-58
2023/11/13 12:30:54;;;;;;;;;;;;;;;;;;5025975;28;19921;-57
2023/11/13 12:33:21;;;;;;;;;;;;;;;;;;5013639;28;19913;-57
2023/11/13 12:35:48;;;;;;;;;;;;;;;;;;5023204;28;19913;-58
2023/11/13 12:38:16;;;;;;;;;;;;;;;;;;5031999;28;20378;-58
2023/11/13 12:40:42;;;;;;;;;;;;;;;;;;5032703;28;19920;-57
2023/11/13 12:43:09;;;;;;;;;;;;;;;;;;5034031;28;20000;-55
2023/11/13 12:45:35;;;;;;;;;;;;;;;;;;5026646;28;19989;-58
2023/11/13 12:48:06;;;;;;;;;;;;;;;;;;5015090;28;19910;-51
2023/11/13 12:50:32;;;;;;;;;;;;;;;;;;5014898;28;19913;-52
2023/11/13 12:52:58;;;;;;;;;;;;;;;;;;5026229;28;20494;-55
2023/11/13 12:55:27;;;;;;;;;;;;;;;;;;5025021;28;19909;-54
2023/11/13 12:57:53;;;;;;;;;;;;;;;;;;5022622;28;19912;-50
2023/11/13 13:00:20;;;;;;;;;;;;;;;;;;5032428;28;19915;-56
2023/11/13 13:02:49;;;;;;;;;;;;;;;;;;5033063;28;19909;-54
2023/11/13 13:05:15;;;;;;;;;;;;;;;;;;5033324;28;19963;-50
2023/11/13 13:07:44;;;;;;;;;;;;;;;;;;5026808;28;20000;-51
2023/11/13 13:10:14;;;;;;;;;;;;;;;;;;5014600;28;19913;-56
2023/11/13 13:12:40;;;;;;;;;;;;;;;;;;5014652;28;19916;-55
2023/11/13 13:15:08;;;;;;;;;;;;;;;;;;5032262;28;19916;-52
2023/11/13 13:17:34;;;;;;;;;;;;;;;;;;5020511;28;20196;-53
2023/11/13 13:20:00;;;;;;;;;;;;;;;;;;5033065;28;19915;-54
2023/11/13 13:22:26;;;;;;;;;;;;;;;;;;5031902;28;19931;-50
2023/11/13 13:24:53;;;;;;;;;;;;;;;;;;5034132;28;19909;-54
2023/11/13 13:27:20;;;;;;;;;;;;;;;;;;5032080;28;19954;-53
2023/11/13 13:29:48;;;;;;;;;;;;;;;;;;5033854;28;19909;-56
2023/11/13 13:32:15;;;;;;;;;;;;;;;;;;5015445;28;19915;-56
2023/11/13 13:34:42;;;;;;;;;;;;;;;;;;5033892;28;19909;-53
2023/11/13 13:37:08;;;;;;;;;;;;;;;;;;5033694;28;19956;-53
2023/11/13 13:39:36;;;;;;;;;;;;;;;;;;5033839;28;20385;-55
2023/11/13 13:42:04;;;;;;;;;;;;;;;;;;5032746;28;20291;-53
2023/11/13 13:44:30;;;;;;;;;;;;;;;;;;5040334;28;20018;-56
2023/11/13 13:46:56;;;;;;;;;;;;;;;;;;5049109;28;19909;-53
2023/11/13 13:49:24;;;;;;;;;;;;;;;;;;5033822;28;19916;-52
2023/11/13 13:51:50;;;;;;;;;;;;;;;;;;5015161;28;19935;-55
2023/11/13 13:54:17;;;;;;;;;;;;;;;;;;5015831;28;20307;-55
2023/11/13 13:56:43;;;;;;;;;;;;;;;;;;5032933;28;19956;-56
2023/11/13 13:59:11;;;;;;;;;;;;;;;;;;5021488;28;19996;-55
2023/11/13 14:01:37;;;;;;;;;;;;;;;;;;5033369;28;20318;-57
2023/11/13 14:04:04;;;;;;;;;;;;;;;;;;5033263;28;19916;-51
2023/11/13 14:06:30;;;;;;;;;;;;;;;;;;5033366;28;19909;-56
2023/11/13 14:08:58;;;;;;;;;;;;;;;;;;5032837;28;19909;-55
2023/11/13 14:11:25;;;;;;;;;;;;;;;;;;5032929;28;19913;-52
2023/11/13 14:13:52;;;;;;;;;;;;;;;;;;5033178;28;19915;-55
2023/11/13 14:16:18;;;;;;;;;;;;;;;;;;5032608;28;19909;-52
2023/11/13 14:18:45;;;;;;;;;;;;;;;;;;5033097;28;19909;-54
2023/11/13 14:21:12;;;;;;;;;;;;;;;;;;5032991;28;19909;-57
2023/11/13 14:23:38;;;;;;;;;;;;;;;;;;5032857;28;19963;-55
2023/11/13 14:26:04;;;;;;;;;;;;;;;;;;5031693;28;19913;-54
2023/11/13 14:28:30;;;;;;;;;;;;;;;;;;5032902;28;19909;-56
2023/11/13 14:30:57;;;;;;;;;;;;;;;;;;5031351;28;19955;-56
2023/11/13 14:33:23;;;;;;;;;;;;;;;;;;5032761;28;19913;-53
2023/11/13 14:35:49;;;;;;;;;;;;;;;;;;5032819;28;20305;-51
2023/11/13 14:38:15;;;;;;;;;;;;;;;;;;5013652;28;20004;-59
2023/11/13 14:40:41;;;;;;;;;;;;;;;;;;5001863;28;19960;-60
2023/11/13 14:43:07;;;;;;;;;;;;;;;;;;5031433;28;19951;-59
2023/11/13 14:45:33;;;;;;;;;;;;;;;;;;5032103;28;19913;-58
2023/11/13 14:47:59;;;;;;;;;;;;;;;;;;5032472;28;19909;-58
2023/11/13 14:50:25;;;;;;;;;;;;;;;;;;5032463;28;20011;-60
2023/11/13 14:52:51;;;;;;;;;;;;;;;;;;5032263;28;19937;-60
2023/11/13 14:55:17;;;;;;;;;;;;;;;;;;5032378;28;20243;-59
2023/11/13 14:57:45;;;;;;;;;;;;;;;;;;5031571;28;19909;-59
2023/11/13 15:00:14;;;;;;;;;;;;;;;;;;5032338;28;19955;-60
2023/11/13 15:02:40;;;;;;;;;;;;;;;;;;5013732;28;19908;-60
2023/11/13 15:05:06;;;;;;;;;;;;;;;;;;5027847;28;19932;-53
2023/11/13 15:07:32;;;;;;;;;;;;;;;;;;5031112;28;20268;-57
2023/11/13 15:09:59;;;;;;;;;;;;;;;;;;4998442;28;19913;-58
2023/11/13 15:12:28;;;;;;;;;;;;;;;;;;5031891;28;19915;-57
2023/11/13 15:14:59;;;;;;;;;;;;;;;;;;5031421;28;19908;-57
2023/11/13 15:17:25;;;;;;;;;;;;;;;;;;5031964;28;19916;-53
2023/11/13 15:19:51;;;;;;;;;;;;;;;;;;5031670;28;20011;-52
2023/11/13 15:22:18;;;;;;;;;;;;;;;;;;5034571;28;19956;-54
2023/11/13 15:24:44;;;;;;;;;;;;;;;;;;5034035;28;19962;-52
2023/11/13 15:27:12;;;;;;;;;;;;;;;;;;5051197;28;19908;-49
2023/11/13 15:29:38;;;;;;;;;;;;;;;;;;5050746;28;19908;-50
2023/11/13 15:32:09;;;;;;;;;;;;;;;;;;5033564;28;20430;-51
2023/11/13 15:34:36;;;;;;;;;;;;;;;;;;5033664;28;19915;-52
2023/11/13 15:37:02;;;;;;;;;;;;;;;;;;5051468;28;20286;-57
2023/11/13 15:39:28;;;;;;;;;;;;;;;;;;5051818;28;20007;-58
2023/11/13 15:41:54;;;;;;;;;;;;;;;;;;5041592;28;19909;-58
2023/11/13 15:44:20;;;;;;;;;;;;;;;;;;5054025;28;19915;-56
2023/11/13 15:46:46;;;;;;;;;;;;;;;;;;5070129;28;19909;-60
2023/11/13 15:49:14;;;;;;;;;;;;;;;;;;5051539;28;20295;-60
2023/11/13 15:51:42;;;;;;;;;;;;;;;;;;5051584;28;20374;-60
2023/11/13 15:54:12;;;;;;;;;;;;;;;;;;5051604;28;19999;-60
2023/11/13 15:56:39;;;;;;;;;;;;;;;;;;5048117;28;19908;-58
2023/11/13 15:59:05;;;;;;;;;;;;;;;;;;5050246;28;19953;-60
2023/11/13 16:01:32;;;;;;;;;;;;;;;;;;5051047;28;20393;-59
2023/11/13 16:03:58;;;;;;;;;;;;;;;;;;5051378;28;19908;-60
2023/11/13 16:06:26;;;;;;;;;;;;;;;;;;5033786;28;19909;-58
2023/11/13 16:08:52;;;;;;;;;;;;;;;;;;5051622;28;20369;-58
2023/11/13 16:11:18;;;;;;;;;;;;;;;;;;5046604;28;20492;-58
2023/11/13 16:13:45;;;;;;;;;;;;;;;;;;5066645;28;19947;-58
2023/11/13 16:16:11;;;;;;;;;;;;;;;;;;5064088;28;19909;-59
2023/11/13 16:18:38;;;;;;;;;;;;;;;;;;5051078;28;19916;-60
2023/11/13 16:21:04;;;;;;;;;;;;;;;;;;5050798;28;19959;-60
2023/11/13 16:23:30;;;;;;;;;;;;;;;;;;5061433;23;19921;-48
2023/11/13 16:25:58;;;;;;;;;;;;;;;;;;5012891;28;19956;-45
2023/11/13 16:28:28;;;;;;;;;;;;;;;;;;5000470;28;19909;-47
2023/11/13 16:30:54;;;;;;;;;;;;;;;;;;5015220;28;19913;-44
2023/11/13 16:33:20;;;;;;;;;;;;;;;;;;5015915;28;19909;-46
2023/11/13 16:35:46;;;;;;;;;;;;;;;;;;5031300;28;19909;-47
2023/11/13 16:38:12;;;;;;;;;;;;;;;;;;5031222;28;19923;-47
2023/11/13 16:40:38;;;;;;;;;;;;;;;;;;5034652;28;19909;-46